Time;durP1;ratioP1;P1;durP2;ratioP2;P2;SDS_P1;SDS_P2;PMS_P1;PMS_P2;Temp;Humidity;BMP_temperature;BMP_pressure;BME280_temperature;BME280_humidity;BME280_pressure;Samples;Min_cycle;Max_cycle;Signal;HPM_P1;HPM_P2
2021/11/27 00:00:40;;;;;;;;;;;;;;;;;;1878296;28;7139;-64
2021/11/27 00:01:39;;;;;;;;;;;;;;;;;;1877385;28;7013;-66
2021/11/27 00:02:37;;;;;;;;;;;;;;;;;;1881462;28;8027;-65
2021/11/27 00:03:34;;;;;;;;;;;;;;;;;;1882896;28;7118;-65
2021/11/27 00:04:32;;;;;;;;;;;;;;;;;;1883534;28;7017;-65
2021/11/27 00:05:30;;;;;;;;;;;;;;;;;;1878821;28;8036;-64
2021/11/27 00:06:28;;;;;;;;;;;;;;;;;;1883061;28;7332;-64
2021/11/27 00:07:25;;;;;;;;;;;;;;;;;;1882857;28;7757;-65
2021/11/27 00:08:23;;;;;;;;;;;;;;;;;;1882966;28;7014;-65
2021/11/27 00:09:21;;;;;;;;;;;;;;;;;;1877691;28;7010;-65
2021/11/27 00:10:20;;;;;;;;;;;;;;;;;;1882897;28;7345;-65
2021/11/27 00:11:18;;;;;;;;;;;;;;;;;;1883029;28;7329;-65
2021/11/27 00:12:15;;;;;;;;;;;;;;;;;;1882387;28;8088;-65
2021/11/27 00:13:13;;;;;;;;;;;;;;;;;;1881742;28;7109;-65
2021/11/27 00:14:11;;;;;;;;;;;;;;;;;;1883000;28;7014;-64
2021/11/27 00:15:13;;;;;;;;;;;;;;;;;;1882449;28;7014;-65
2021/11/27 00:16:11;;;;;;;;;;;;;;;;;;1882491;28;7080;-65
2021/11/27 00:17:08;;;;;;;;;;;;;;;;;;1880493;28;7129;-65
2021/11/27 00:18:07;;;;;;;;;;;;;;;;;;1878733;28;7014;-64
2021/11/27 00:19:04;;;;;;;;;;;;;;;;;;1880796;28;7042;-65
2021/11/27 00:20:03;;;;;;;;;;;;;;;;;;1882755;28;7382;-65
2021/11/27 00:21:04;;;;;;;;;;;;;;;;;;1882574;28;7014;-65
2021/11/27 00:22:02;;;;;;;;;;;;;;;;;;1882615;28;7134;-65
2021/11/27 00:23:00;;;;;;;;;;;;;;;;;;1882277;28;7017;-65
2021/11/27 00:24:00;;;;;;;;;;;;;;;;;;1882199;28;7386;-65
2021/11/27 00:24:58;;;;;;;;;;;;;;;;;;1882470;28;7097;-65
2021/11/27 00:25:55;;;;;;;;;;;;;;;;;;1874555;28;7025;-65
2021/11/27 00:26:53;;;;;;;;;;;;;;;;;;1875145;29;7014;-65
2021/11/27 00:27:51;;;;;;;;;;;;;;;;;;1875532;29;7006;-65
2021/11/27 00:28:49;;;;;;;;;;;;;;;;;;1874824;29;7163;-64
2021/11/27 00:29:46;;;;;;;;;;;;;;;;;;1875491;29;8104;-65
2021/11/27 00:30:45;;;;;;;;;;;;;;;;;;1879316;28;7009;-65
2021/11/27 00:31:42;;;;;;;;;;;;;;;;;;1882643;28;7109;-65
2021/11/27 00:32:40;;;;;;;;;;;;;;;;;;1882080;28;7113;-64
2021/11/27 00:33:38;;;;;;;;;;;;;;;;;;1881227;28;8040;-65
2021/11/27 00:34:35;;;;;;;;;;;;;;;;;;1876311;28;7010;-65
2021/11/27 00:35:33;;;;;;;;;;;;;;;;;;1875724;29;7050;-64
2021/11/27 00:36:31;;;;;;;;;;;;;;;;;;1875643;29;7014;-64
2021/11/27 00:37:28;;;;;;;;;;;;;;;;;;1876129;28;7222;-65
2021/11/27 00:38:26;;;;;;;;;;;;;;;;;;1882317;28;7114;-65
2021/11/27 00:39:23;;;;;;;;;;;;;;;;;;1875937;28;7143;-65
2021/11/27 00:40:22;;;;;;;;;;;;;;;;;;1875840;28;7010;-65
2021/11/27 00:41:19;;;;;;;;;;;;;;;;;;1877366;28;7047;-65
2021/11/27 00:42:17;;;;;;;;;;;;;;;;;;1877219;28;7013;-65
2021/11/27 00:43:15;;;;;;;;;;;;;;;;;;1877052;28;7138;-65
2021/11/27 00:44:12;;;;;;;;;;;;;;;;;;1877138;28;7006;-65
2021/11/27 00:45:11;;;;;;;;;;;;;;;;;;1877190;28;7014;-64
2021/11/27 00:46:09;;;;;;;;;;;;;;;;;;1876929;28;7043;-65
2021/11/27 00:47:07;;;;;;;;;;;;;;;;;;1877265;28;7058;-65
2021/11/27 00:48:05;;;;;;;;;;;;;;;;;;1877474;28;7178;-65
2021/11/27 00:49:03;;;;;;;;;;;;;;;;;;1877188;28;7109;-65
2021/11/27 00:50:01;;;;;;;;;;;;;;;;;;1876718;28;7103;-65
2021/11/27 00:51:01;;;;;;;;;;;;;;;;;;1876826;28;7010;-65
2021/11/27 00:52:01;;;;;;;;;;;;;;;;;;1876595;28;7148;-65
2021/11/27 00:53:00;;;;;;;;;;;;;;;;;;1876711;28;7118;-64
2021/11/27 00:53:58;;;;;;;;;;;;;;;;;;1876747;28;7339;-65
2021/11/27 00:54:55;;;;;;;;;;;;;;;;;;1881463;28;7113;-64
2021/11/27 00:55:53;;;;;;;;;;;;;;;;;;1876657;28;7014;-65
2021/11/27 00:56:51;;;;;;;;;;;;;;;;;;1877233;28;7138;-65
2021/11/27 00:57:49;;;;;;;;;;;;;;;;;;1875411;28;7025;-64
2021/11/27 00:58:47;;;;;;;;;;;;;;;;;;1883442;28;7014;-64
2021/11/27 00:59:44;;;;;;;;;;;;;;;;;;1880420;28;7089;-65
2021/11/27 01:00:45;;;;;;;;;;;;;;;;;;1875700;28;7026;-65
2021/11/27 01:01:43;;;;;;;;;;;;;;;;;;1876695;28;7093;-65
2021/11/27 01:02:41;;;;;;;;;;;;;;;;;;1875974;28;7042;-65
2021/11/27 01:03:44;;;;;;;;;;;;;;;;;;1877319;28;7096;-65
2021/11/27 01:04:41;;;;;;;;;;;;;;;;;;1877320;28;7021;-64
2021/11/27 01:05:39;;;;;;;;;;;;;;;;;;1876643;28;7006;-65
2021/11/27 01:06:37;;;;;;;;;;;;;;;;;;1876648;28;7010;-64
2021/11/27 01:07:34;;;;;;;;;;;;;;;;;;1876981;28;7097;-66
2021/11/27 01:08:32;;;;;;;;;;;;;;;;;;1877072;28;7029;-65
2021/11/27 01:09:30;;;;;;;;;;;;;;;;;;1877256;28;7006;-65
2021/11/27 01:10:31;;;;;;;;;;;;;;;;;;1878050;28;7114;-65
2021/11/27 01:11:31;;;;;;;;;;;;;;;;;;1879997;28;7139;-65
2021/11/27 01:12:28;;;;;;;;;;;;;;;;;;1877636;28;7151;-65
2021/11/27 01:13:27;;;;;;;;;;;;;;;;;;1875671;28;7042;-65
2021/11/27 01:14:27;;;;;;;;;;;;;;;;;;1876591;28;7026;-65
2021/11/27 01:15:27;;;;;;;;;;;;;;;;;;1876296;28;7312;-65
2021/11/27 01:16:26;;;;;;;;;;;;;;;;;;1876237;28;7038;-65
2021/11/27 01:17:23;;;;;;;;;;;;;;;;;;1876614;28;7010;-65
2021/11/27 01:18:22;;;;;;;;;;;;;;;;;;1876311;28;7017;-65
2021/11/27 01:19:20;;;;;;;;;;;;;;;;;;1876266;28;7021;-65
2021/11/27 01:20:19;;;;;;;;;;;;;;;;;;1876353;28;8109;-65
2021/11/27 01:21:20;;;;;;;;;;;;;;;;;;1875006;28;7763;-65
2021/11/27 01:22:21;;;;;;;;;;;;;;;;;;1875890;28;7088;-65
2021/11/27 01:23:19;;;;;;;;;;;;;;;;;;1876243;28;7002;-64
2021/11/27 01:24:17;;;;;;;;;;;;;;;;;;1878921;28;7569;-64
2021/11/27 01:25:17;;;;;;;;;;;;;;;;;;1883947;28;7284;-65
2021/11/27 01:26:15;;;;;;;;;;;;;;;;;;1883576;28;8314;-65
2021/11/27 01:27:13;;;;;;;;;;;;;;;;;;1883486;28;7002;-65
2021/11/27 01:28:11;;;;;;;;;;;;;;;;;;1884398;28;8036;-64
2021/11/27 01:29:08;;;;;;;;;;;;;;;;;;1883480;28;7058;-65
2021/11/27 01:30:08;;;;;;;;;;;;;;;;;;1884048;28;7050;-65
2021/11/27 01:31:06;;;;;;;;;;;;;;;;;;1883776;28;8084;-65
2021/11/27 01:32:05;;;;;;;;;;;;;;;;;;1884262;28;7010;-64
2021/11/27 01:33:02;;;;;;;;;;;;;;;;;;1883318;28;7038;-65
2021/11/27 01:34:00;;;;;;;;;;;;;;;;;;1883266;28;7089;-65
2021/11/27 01:34:58;;;;;;;;;;;;;;;;;;1884337;28;7996;-65
2021/11/27 01:35:56;;;;;;;;;;;;;;;;;;1884169;28;7388;-65
2021/11/27 01:36:53;;;;;;;;;;;;;;;;;;1884010;28;7010;-64
2021/11/27 01:37:51;;;;;;;;;;;;;;;;;;1883824;28;7093;-65
2021/11/27 01:38:49;;;;;;;;;;;;;;;;;;1883943;28;7149;-65
2021/11/27 01:39:46;;;;;;;;;;;;;;;;;;1883670;28;7144;-65
2021/11/27 01:40:44;;;;;;;;;;;;;;;;;;1884018;28;7309;-64
2021/11/27 01:41:42;;;;;;;;;;;;;;;;;;1884284;28;7097;-65
2021/11/27 01:42:40;;;;;;;;;;;;;;;;;;1884543;28;7317;-65
2021/11/27 01:43:38;;;;;;;;;;;;;;;;;;1883773;28;8986;-65
2021/11/27 01:44:35;;;;;;;;;;;;;;;;;;1883943;28;7006;-65
2021/11/27 01:45:33;;;;;;;;;;;;;;;;;;1883816;28;7373;-65
2021/11/27 01:46:33;;;;;;;;;;;;;;;;;;1883906;28;7010;-65
2021/11/27 01:47:32;;;;;;;;;;;;;;;;;;1883818;28;9342;-64
2021/11/27 01:48:29;;;;;;;;;;;;;;;;;;1883806;28;8043;-65
2021/11/27 01:49:27;;;;;;;;;;;;;;;;;;1884510;28;7040;-64
2021/11/27 01:50:26;;;;;;;;;;;;;;;;;;1883548;28;7130;-65
2021/11/27 01:51:24;;;;;;;;;;;;;;;;;;1884067;28;7109;-65
2021/11/27 01:52:21;;;;;;;;;;;;;;;;;;1883229;28;7092;-65
2021/11/27 01:53:22;;;;;;;;;;;;;;;;;;1883319;28;7006;-65
2021/11/27 01:54:20;;;;;;;;;;;;;;;;;;1876882;28;7370;-65
2021/11/27 01:55:18;;;;;;;;;;;;;;;;;;1882719;28;7014;-64
2021/11/27 01:56:18;;;;;;;;;;;;;;;;;;1883537;28;7093;-64
2021/11/27 01:57:16;;;;;;;;;;;;;;;;;;1884317;28;7010;-65
2021/11/27 01:58:13;;;;;;;;;;;;;;;;;;1876458;28;7010;-65
2021/11/27 01:59:11;;;;;;;;;;;;;;;;;;1883487;28;7042;-64
2021/11/27 02:00:11;;;;;;;;;;;;;;;;;;1883774;28;7635;-64
2021/11/27 02:01:11;;;;;;;;;;;;;;;;;;1882868;28;8515;-65
2021/11/27 02:02:11;;;;;;;;;;;;;;;;;;1884119;28;7022;-65
2021/11/27 02:03:09;;;;;;;;;;;;;;;;;;1884277;28;7169;-65
2021/11/27 02:04:09;;;;;;;;;;;;;;;;;;1883979;28;7096;-65
2021/11/27 02:05:06;;;;;;;;;;;;;;;;;;1884212;28;7078;-65
2021/11/27 02:06:05;;;;;;;;;;;;;;;;;;1883913;28;7333;-65
2021/11/27 02:07:04;;;;;;;;;;;;;;;;;;1883395;28;7030;-65
2021/11/27 02:08:01;;;;;;;;;;;;;;;;;;1883378;28;7006;-65
2021/11/27 02:09:02;;;;;;;;;;;;;;;;;;1883538;28;7039;-65
2021/11/27 02:10:00;;;;;;;;;;;;;;;;;;1882137;28;7006;-65
2021/11/27 02:10:58;;;;;;;;;;;;;;;;;;1883636;28;7448;-65
2021/11/27 02:11:58;;;;;;;;;;;;;;;;;;1883777;28;7014;-65
2021/11/27 02:12:56;;;;;;;;;;;;;;;;;;1883436;28;7233;-65
2021/11/27 02:13:54;;;;;;;;;;;;;;;;;;1883561;28;7316;-65
2021/11/27 02:14:51;;;;;;;;;;;;;;;;;;1883252;28;7629;-65
2021/11/27 02:15:49;;;;;;;;;;;;;;;;;;1882779;28;7006;-65
2021/11/27 02:16:47;;;;;;;;;;;;;;;;;;1883034;28;7006;-65
2021/11/27 02:17:45;;;;;;;;;;;;;;;;;;1883513;28;7034;-65
2021/11/27 02:18:43;;;;;;;;;;;;;;;;;;1883121;28;7014;-64
2021/11/27 02:19:41;;;;;;;;;;;;;;;;;;1883207;28;7014;-65
2021/11/27 02:20:40;;;;;;;;;;;;;;;;;;1883681;28;7498;-65
2021/11/27 02:21:40;;;;;;;;;;;;;;;;;;1883293;28;7097;-65
2021/11/27 02:22:38;;;;;;;;;;;;;;;;;;1882896;28;7006;-65
2021/11/27 02:23:36;;;;;;;;;;;;;;;;;;1883094;28;7005;-65
2021/11/27 02:24:33;;;;;;;;;;;;;;;;;;1882334;28;7006;-65
2021/11/27 02:25:32;;;;;;;;;;;;;;;;;;1882444;28;7375;-65
2021/11/27 02:26:33;;;;;;;;;;;;;;;;;;1877882;28;7109;-65
2021/11/27 02:27:30;;;;;;;;;;;;;;;;;;1878633;28;7097;-65
2021/11/27 02:28:33;;;;;;;;;;;;;;;;;;1876586;28;7088;-65
2021/11/27 02:29:32;;;;;;;;;;;;;;;;;;1876169;28;7121;-64
2021/11/27 02:30:30;;;;;;;;;;;;;;;;;;1875699;28;7120;-65
2021/11/27 02:31:27;;;;;;;;;;;;;;;;;;1876011;28;7093;-64
2021/11/27 02:32:25;;;;;;;;;;;;;;;;;;1877263;28;7006;-64
2021/11/27 02:33:22;;;;;;;;;;;;;;;;;;1882573;28;7034;-65
2021/11/27 02:34:20;;;;;;;;;;;;;;;;;;1883044;28;7133;-65
2021/11/27 02:35:19;;;;;;;;;;;;;;;;;;1884045;28;7042;-65
2021/11/27 02:36:16;;;;;;;;;;;;;;;;;;1882801;28;7010;-65
2021/11/27 02:37:14;;;;;;;;;;;;;;;;;;1883754;28;7325;-65
2021/11/27 02:38:12;;;;;;;;;;;;;;;;;;1883325;28;7109;-65
2021/11/27 02:39:11;;;;;;;;;;;;;;;;;;1883839;28;7109;-65
2021/11/27 02:40:10;;;;;;;;;;;;;;;;;;1883398;28;7002;-65
2021/11/27 02:41:07;;;;;;;;;;;;;;;;;;1883616;28;7112;-65
2021/11/27 02:42:06;;;;;;;;;;;;;;;;;;1883444;28;7042;-64
2021/11/27 02:43:04;;;;;;;;;;;;;;;;;;1883987;28;7002;-65
2021/11/27 02:44:01;;;;;;;;;;;;;;;;;;1883496;28;7009;-65
2021/11/27 02:44:59;;;;;;;;;;;;;;;;;;1883415;28;8823;-64
2021/11/27 02:45:57;;;;;;;;;;;;;;;;;;1883805;28;7010;-65
2021/11/27 02:46:54;;;;;;;;;;;;;;;;;;1883465;28;7101;-64
2021/11/27 02:47:52;;;;;;;;;;;;;;;;;;1876524;28;7010;-65
2021/11/27 02:48:54;;;;;;;;;;;;;;;;;;1875931;28;7138;-64
2021/11/27 02:49:52;;;;;;;;;;;;;;;;;;1880646;28;7010;-65
2021/11/27 02:50:49;;;;;;;;;;;;;;;;;;1883954;28;7006;-64
2021/11/27 02:51:47;;;;;;;;;;;;;;;;;;1883508;28;7006;-64
2021/11/27 02:52:45;;;;;;;;;;;;;;;;;;1883385;28;7006;-65
2021/11/27 02:53:42;;;;;;;;;;;;;;;;;;1883614;28;7373;-65
2021/11/27 02:54:40;;;;;;;;;;;;;;;;;;1875454;28;7010;-64
2021/11/27 02:55:37;;;;;;;;;;;;;;;;;;1879073;28;7030;-65
2021/11/27 02:56:36;;;;;;;;;;;;;;;;;;1879095;28;7013;-65
2021/11/27 02:57:34;;;;;;;;;;;;;;;;;;1876383;28;7027;-65
2021/11/27 02:58:32;;;;;;;;;;;;;;;;;;1877528;28;7006;-64
2021/11/27 02:59:30;;;;;;;;;;;;;;;;;;1882093;28;7018;-65
2021/11/27 03:00:27;;;;;;;;;;;;;;;;;;1876309;28;7093;-65
2021/11/27 03:01:25;;;;;;;;;;;;;;;;;;1876029;28;7030;-65
2021/11/27 03:02:23;;;;;;;;;;;;;;;;;;1876103;28;7010;-65
2021/11/27 03:03:20;;;;;;;;;;;;;;;;;;1876221;28;7093;-64
2021/11/27 03:04:18;;;;;;;;;;;;;;;;;;1882810;28;7006;-66
2021/11/27 03:05:17;;;;;;;;;;;;;;;;;;1883848;28;7025;-65
2021/11/27 03:06:15;;;;;;;;;;;;;;;;;;1883422;28;7404;-65
2021/11/27 03:07:14;;;;;;;;;;;;;;;;;;1881014;28;8108;-65
2021/11/27 03:08:11;;;;;;;;;;;;;;;;;;1876159;28;7006;-65
2021/11/27 03:09:10;;;;;;;;;;;;;;;;;;1875906;28;7010;-65
2021/11/27 03:10:09;;;;;;;;;;;;;;;;;;1876393;28;7120;-64
2021/11/27 03:11:06;;;;;;;;;;;;;;;;;;1876011;28;8102;-65
2021/11/27 03:12:05;;;;;;;;;;;;;;;;;;1876569;28;7006;-65
2021/11/27 03:13:03;;;;;;;;;;;;;;;;;;1880758;28;8094;-65
2021/11/27 03:14:00;;;;;;;;;;;;;;;;;;1883350;28;7058;-65
2021/11/27 03:14:58;;;;;;;;;;;;;;;;;;1883399;28;7211;-65
2021/11/27 03:15:56;;;;;;;;;;;;;;;;;;1882879;28;7054;-65
2021/11/27 03:16:55;;;;;;;;;;;;;;;;;;1882793;28;7150;-65
2021/11/27 03:17:57;;;;;;;;;;;;;;;;;;1882765;28;7054;-64
2021/11/27 03:18:54;;;;;;;;;;;;;;;;;;1881847;28;7305;-65
2021/11/27 03:19:52;;;;;;;;;;;;;;;;;;1875969;28;7093;-65
2021/11/27 03:20:51;;;;;;;;;;;;;;;;;;1875697;28;7034;-64
2021/11/27 03:21:49;;;;;;;;;;;;;;;;;;1875288;28;7006;-65
2021/11/27 03:22:47;;;;;;;;;;;;;;;;;;1875536;28;7002;-65
2021/11/27 03:23:45;;;;;;;;;;;;;;;;;;1878740;28;7093;-65
2021/11/27 03:24:42;;;;;;;;;;;;;;;;;;1883055;28;7084;-66
2021/11/27 03:25:40;;;;;;;;;;;;;;;;;;1874352;28;7097;-64
2021/11/27 03:26:38;;;;;;;;;;;;;;;;;;1876081;28;7089;-65
2021/11/27 03:27:36;;;;;;;;;;;;;;;;;;1875859;28;7026;-65
2021/11/27 03:28:34;;;;;;;;;;;;;;;;;;1875410;28;7010;-65
2021/11/27 03:29:32;;;;;;;;;;;;;;;;;;1875590;28;7006;-64
2021/11/27 03:30:29;;;;;;;;;;;;;;;;;;1875882;28;7062;-65
2021/11/27 03:31:27;;;;;;;;;;;;;;;;;;1875935;28;7118;-65
2021/11/27 03:32:24;;;;;;;;;;;;;;;;;;1875768;28;7102;-64
2021/11/27 03:33:22;;;;;;;;;;;;;;;;;;1875391;28;7137;-64
2021/11/27 03:34:19;;;;;;;;;;;;;;;;;;1876517;28;7309;-64
2021/11/27 03:35:17;;;;;;;;;;;;;;;;;;1875877;28;7022;-65
2021/11/27 03:36:15;;;;;;;;;;;;;;;;;;1876152;28;7013;-65
2021/11/27 03:37:13;;;;;;;;;;;;;;;;;;1875887;28;7058;-65
2021/11/27 03:38:10;;;;;;;;;;;;;;;;;;1876077;28;7010;-64
2021/11/27 03:39:08;;;;;;;;;;;;;;;;;;1876339;28;7010;-65
2021/11/27 03:40:07;;;;;;;;;;;;;;;;;;1876372;28;7009;-65
2021/11/27 03:41:05;;;;;;;;;;;;;;;;;;1876293;28;7124;-65
2021/11/27 03:42:05;;;;;;;;;;;;;;;;;;1875606;28;7026;-65
2021/11/27 03:43:03;;;;;;;;;;;;;;;;;;1875162;28;7139;-65
2021/11/27 03:44:01;;;;;;;;;;;;;;;;;;1881877;28;7305;-65
2021/11/27 03:44:59;;;;;;;;;;;;;;;;;;1882972;28;7017;-65
2021/11/27 03:45:58;;;;;;;;;;;;;;;;;;1876598;28;7046;-65
2021/11/27 03:46:59;;;;;;;;;;;;;;;;;;1874657;28;7109;-64
2021/11/27 03:47:59;;;;;;;;;;;;;;;;;;1880692;28;7010;-64
2021/11/27 03:48:57;;;;;;;;;;;;;;;;;;1877276;28;7018;-65
2021/11/27 03:49:54;;;;;;;;;;;;;;;;;;1875987;28;7038;-65
2021/11/27 03:50:53;;;;;;;;;;;;;;;;;;1876132;28;7033;-65
2021/11/27 03:51:51;;;;;;;;;;;;;;;;;;1874777;28;7037;-65
2021/11/27 03:52:49;;;;;;;;;;;;;;;;;;1875949;28;7037;-65
2021/11/27 03:53:47;;;;;;;;;;;;;;;;;;1875349;29;7009;-65
2021/11/27 03:54:45;;;;;;;;;;;;;;;;;;1878123;28;7096;-65
2021/11/27 03:55:43;;;;;;;;;;;;;;;;;;1883298;28;7097;-65
2021/11/27 03:56:40;;;;;;;;;;;;;;;;;;1883934;28;7324;-65
2021/11/27 03:57:38;;;;;;;;;;;;;;;;;;1883362;28;7136;-65
2021/11/27 03:58:35;;;;;;;;;;;;;;;;;;1883175;28;8055;-64
2021/11/27 03:59:34;;;;;;;;;;;;;;;;;;1874391;28;7014;-65
2021/11/27 04:00:32;;;;;;;;;;;;;;;;;;1877870;28;7030;-64
2021/11/27 04:01:30;;;;;;;;;;;;;;;;;;1877485;28;7320;-64
2021/11/27 04:02:27;;;;;;;;;;;;;;;;;;1875347;29;8028;-65
2021/11/27 04:03:25;;;;;;;;;;;;;;;;;;1875851;28;7042;-65
2021/11/27 04:04:23;;;;;;;;;;;;;;;;;;1875064;29;7001;-65
2021/11/27 04:05:25;;;;;;;;;;;;;;;;;;1875451;29;7093;-65
2021/11/27 04:06:22;;;;;;;;;;;;;;;;;;1875304;29;7089;-64
2021/11/27 04:07:20;;;;;;;;;;;;;;;;;;1875001;28;7808;-65
2021/11/27 04:08:18;;;;;;;;;;;;;;;;;;1875409;28;7013;-64
2021/11/27 04:09:16;;;;;;;;;;;;;;;;;;1868087;29;7943;-65
2021/11/27 04:10:15;;;;;;;;;;;;;;;;;;1876009;29;7093;-65
2021/11/27 04:11:13;;;;;;;;;;;;;;;;;;1882336;28;7013;-65
2021/11/27 04:12:11;;;;;;;;;;;;;;;;;;1875945;29;7105;-65
2021/11/27 04:13:08;;;;;;;;;;;;;;;;;;1876053;29;7050;-65
2021/11/27 04:14:06;;;;;;;;;;;;;;;;;;1875955;29;7009;-65
2021/11/27 04:15:04;;;;;;;;;;;;;;;;;;1875443;28;7010;-64
2021/11/27 04:16:02;;;;;;;;;;;;;;;;;;1876406;28;7101;-64
2021/11/27 04:17:00;;;;;;;;;;;;;;;;;;1876761;28;7149;-65
2021/11/27 04:17:59;;;;;;;;;;;;;;;;;;1877065;28;7108;-64
2021/11/27 04:18:56;;;;;;;;;;;;;;;;;;1876460;28;7132;-65
2021/11/27 04:19:54;;;;;;;;;;;;;;;;;;1879478;28;7014;-65
2021/11/27 04:20:51;;;;;;;;;;;;;;;;;;1876182;28;7039;-65
2021/11/27 04:21:49;;;;;;;;;;;;;;;;;;1876728;28;7021;-65
2021/11/27 04:22:46;;;;;;;;;;;;;;;;;;1875641;28;7242;-65
2021/11/27 04:23:44;;;;;;;;;;;;;;;;;;1876677;28;7038;-64
2021/11/27 04:24:41;;;;;;;;;;;;;;;;;;1881225;28;7332;-65
2021/11/27 04:25:39;;;;;;;;;;;;;;;;;;1877350;28;7002;-65
2021/11/27 04:26:36;;;;;;;;;;;;;;;;;;1883674;28;7126;-64
2021/11/27 04:27:35;;;;;;;;;;;;;;;;;;1878874;28;7006;-65
2021/11/27 04:28:32;;;;;;;;;;;;;;;;;;1875631;28;7094;-65
2021/11/27 04:29:31;;;;;;;;;;;;;;;;;;1877114;28;7006;-64
2021/11/27 04:30:30;;;;;;;;;;;;;;;;;;1877118;28;7150;-65
2021/11/27 04:31:28;;;;;;;;;;;;;;;;;;1877469;28;7029;-65
2021/11/27 04:32:25;;;;;;;;;;;;;;;;;;1881104;28;7010;-65
2021/11/27 04:33:23;;;;;;;;;;;;;;;;;;1880204;28;7010;-65
2021/11/27 04:34:20;;;;;;;;;;;;;;;;;;1876548;28;7058;-65
2021/11/27 04:35:18;;;;;;;;;;;;;;;;;;1877201;28;7007;-65
2021/11/27 04:36:16;;;;;;;;;;;;;;;;;;1877820;28;7140;-65
2021/11/27 04:37:15;;;;;;;;;;;;;;;;;;1881111;28;7006;-65
2021/11/27 04:38:13;;;;;;;;;;;;;;;;;;1877101;28;7097;-65
2021/11/27 04:39:10;;;;;;;;;;;;;;;;;;1877902;28;7042;-65
2021/11/27 04:40:08;;;;;;;;;;;;;;;;;;1869634;29;7041;-65
2021/11/27 04:41:06;;;;;;;;;;;;;;;;;;1869538;29;7010;-65
2021/11/27 04:42:04;;;;;;;;;;;;;;;;;;1875563;28;7105;-65
2021/11/27 04:43:02;;;;;;;;;;;;;;;;;;1876909;28;7093;-65
2021/11/27 04:43:59;;;;;;;;;;;;;;;;;;1877090;28;7093;-65
2021/11/27 04:44:57;;;;;;;;;;;;;;;;;;1876907;28;7085;-65
2021/11/27 04:45:54;;;;;;;;;;;;;;;;;;1877798;28;7301;-65
2021/11/27 04:46:52;;;;;;;;;;;;;;;;;;1877362;28;7006;-64
2021/11/27 04:47:49;;;;;;;;;;;;;;;;;;1881553;28;7407;-64
2021/11/27 04:48:47;;;;;;;;;;;;;;;;;;1877099;28;8099;-65
2021/11/27 04:49:44;;;;;;;;;;;;;;;;;;1877084;28;7026;-65
2021/11/27 04:50:42;;;;;;;;;;;;;;;;;;1877148;28;8055;-65
2021/11/27 04:51:40;;;;;;;;;;;;;;;;;;1877008;28;7035;-65
2021/11/27 04:52:37;;;;;;;;;;;;;;;;;;1877443;28;7038;-64
2021/11/27 04:53:35;;;;;;;;;;;;;;;;;;1877243;28;7089;-64
2021/11/27 04:54:32;;;;;;;;;;;;;;;;;;1876966;28;7010;-65
2021/11/27 04:55:31;;;;;;;;;;;;;;;;;;1879356;28;7009;-65
2021/11/27 04:56:28;;;;;;;;;;;;;;;;;;1884508;28;7040;-64
2021/11/27 04:57:25;;;;;;;;;;;;;;;;;;1884148;28;7046;-65
2021/11/27 04:58:23;;;;;;;;;;;;;;;;;;1884205;28;7285;-65
2021/11/27 04:59:22;;;;;;;;;;;;;;;;;;1884536;28;7009;-65
2021/11/27 05:00:22;;;;;;;;;;;;;;;;;;1877371;28;8946;-65
2021/11/27 05:01:22;;;;;;;;;;;;;;;;;;1877025;28;7142;-65
2021/11/27 05:02:20;;;;;;;;;;;;;;;;;;1876792;28;7018;-65
2021/11/27 05:03:17;;;;;;;;;;;;;;;;;;1876479;28;7010;-64
2021/11/27 05:04:15;;;;;;;;;;;;;;;;;;1876871;28;7336;-64
2021/11/27 05:05:13;;;;;;;;;;;;;;;;;;1884158;28;7324;-65
2021/11/27 05:06:10;;;;;;;;;;;;;;;;;;1884347;28;7021;-64
2021/11/27 05:07:08;;;;;;;;;;;;;;;;;;1884762;28;7001;-65
2021/11/27 05:08:05;;;;;;;;;;;;;;;;;;1884465;28;7006;-65
2021/11/27 05:09:03;;;;;;;;;;;;;;;;;;1884269;28;7034;-65
2021/11/27 05:10:01;;;;;;;;;;;;;;;;;;1884288;28;7126;-64
2021/11/27 05:10:58;;;;;;;;;;;;;;;;;;1884325;28;7018;-65
2021/11/27 05:11:56;;;;;;;;;;;;;;;;;;1884070;28;7096;-65
2021/11/27 05:12:54;;;;;;;;;;;;;;;;;;1877558;28;7046;-64
2021/11/27 05:13:52;;;;;;;;;;;;;;;;;;1877441;28;7324;-65
2021/11/27 05:14:49;;;;;;;;;;;;;;;;;;1876693;28;7101;-65
2021/11/27 05:15:47;;;;;;;;;;;;;;;;;;1876341;28;8111;-65
2021/11/27 05:16:44;;;;;;;;;;;;;;;;;;1867642;29;7018;-65
2021/11/27 05:17:42;;;;;;;;;;;;;;;;;;1869054;29;7097;-65
2021/11/27 05:18:40;;;;;;;;;;;;;;;;;;1875206;28;7113;-65
2021/11/27 05:19:39;;;;;;;;;;;;;;;;;;1876913;28;7391;-64
2021/11/27 05:20:36;;;;;;;;;;;;;;;;;;1876489;28;7010;-65
2021/11/27 05:21:34;;;;;;;;;;;;;;;;;;1875881;28;7006;-65
2021/11/27 05:22:32;;;;;;;;;;;;;;;;;;1876527;28;7095;-65
2021/11/27 05:23:29;;;;;;;;;;;;;;;;;;1876119;28;8116;-65
2021/11/27 05:24:27;;;;;;;;;;;;;;;;;;1878692;28;7006;-64
2021/11/27 05:25:24;;;;;;;;;;;;;;;;;;1883774;28;7006;-64
2021/11/27 05:26:22;;;;;;;;;;;;;;;;;;1884258;28;7093;-65
2021/11/27 05:27:20;;;;;;;;;;;;;;;;;;1882761;28;7124;-65
2021/11/27 05:28:17;;;;;;;;;;;;;;;;;;1884345;28;7225;-65
2021/11/27 05:29:15;;;;;;;;;;;;;;;;;;1883485;28;8104;-65
2021/11/27 05:30:14;;;;;;;;;;;;;;;;;;1884214;28;7042;-65
2021/11/27 05:31:14;;;;;;;;;;;;;;;;;;1884090;28;7721;-65
2021/11/27 05:33:47;;;;;;;;;;;;;;;;;;1882822;28;8056;-65
2021/11/27 05:34:45;;;;;;;;;;;;;;;;;;1883770;28;7009;-65
2021/11/27 05:35:42;;;;;;;;;;;;;;;;;;1884378;28;7013;-65
2021/11/27 05:36:41;;;;;;;;;;;;;;;;;;1884489;28;7054;-65
2021/11/27 05:37:39;;;;;;;;;;;;;;;;;;1884580;28;8112;-65
2021/11/27 05:38:36;;;;;;;;;;;;;;;;;;1884355;28;7014;-64
2021/11/27 05:39:34;;;;;;;;;;;;;;;;;;1884606;28;7013;-64
2021/11/27 05:40:32;;;;;;;;;;;;;;;;;;1885371;28;7010;-65
2021/11/27 05:41:30;;;;;;;;;;;;;;;;;;1883975;28;7009;-65
2021/11/27 05:42:27;;;;;;;;;;;;;;;;;;1884309;28;7057;-65
2021/11/27 05:43:24;;;;;;;;;;;;;;;;;;1884133;28;7030;-64
2021/11/27 05:44:22;;;;;;;;;;;;;;;;;;1884036;28;7093;-65
2021/11/27 05:45:26;;;;;;;;;;;;;;;;;;1884090;28;7034;-65
2021/11/27 05:46:24;;;;;;;;;;;;;;;;;;1882068;28;7002;-65
2021/11/27 05:47:23;;;;;;;;;;;;;;;;;;1884683;28;7026;-65
2021/11/27 05:48:20;;;;;;;;;;;;;;;;;;1884624;28;7149;-65
2021/11/27 05:49:18;;;;;;;;;;;;;;;;;;1884149;28;7021;-65
2021/11/27 05:50:15;;;;;;;;;;;;;;;;;;1877038;28;7097;-65
2021/11/27 05:51:13;;;;;;;;;;;;;;;;;;1883824;28;7022;-65
2021/11/27 05:52:11;;;;;;;;;;;;;;;;;;1883463;28;8121;-65
2021/11/27 05:53:10;;;;;;;;;;;;;;;;;;1884504;28;7092;-64
2021/11/27 05:54:07;;;;;;;;;;;;;;;;;;1884341;28;7006;-65
2021/11/27 05:55:06;;;;;;;;;;;;;;;;;;1884631;28;7018;-65
2021/11/27 05:56:03;;;;;;;;;;;;;;;;;;1884151;28;7006;-65
2021/11/27 05:57:01;;;;;;;;;;;;;;;;;;1883973;28;7142;-65
2021/11/27 05:57:58;;;;;;;;;;;;;;;;;;1883854;28;7017;-65
2021/11/27 05:58:56;;;;;;;;;;;;;;;;;;1884087;28;7093;-65
2021/11/27 05:59:54;;;;;;;;;;;;;;;;;;1883650;28;7042;-65
2021/11/27 06:00:51;;;;;;;;;;;;;;;;;;1883989;28;10038;-65
2021/11/27 06:01:49;;;;;;;;;;;;;;;;;;1884284;28;7010;-65
2021/11/27 06:02:47;;;;;;;;;;;;;;;;;;1884068;28;7333;-64
2021/11/27 06:03:44;;;;;;;;;;;;;;;;;;1883459;28;7228;-65
2021/11/27 06:04:41;;;;;;;;;;;;;;;;;;1880725;28;7010;-65
2021/11/27 06:05:39;;;;;;;;;;;;;;;;;;1880388;28;7029;-64
2021/11/27 06:06:36;;;;;;;;;;;;;;;;;;1884472;28;7125;-65
2021/11/27 06:07:35;;;;;;;;;;;;;;;;;;1884003;28;7010;-65
2021/11/27 06:08:32;;;;;;;;;;;;;;;;;;1884427;28;7006;-65
2021/11/27 06:09:30;;;;;;;;;;;;;;;;;;1884188;28;7078;-65
2021/11/27 06:10:28;;;;;;;;;;;;;;;;;;1884098;28;7009;-65
2021/11/27 06:11:25;;;;;;;;;;;;;;;;;;1883897;28;7026;-65
2021/11/27 06:12:23;;;;;;;;;;;;;;;;;;1883324;28;7006;-65
2021/11/27 06:13:20;;;;;;;;;;;;;;;;;;1883699;28;7096;-64
2021/11/27 06:14:17;;;;;;;;;;;;;;;;;;1883980;28;7010;-65
2021/11/27 06:15:15;;;;;;;;;;;;;;;;;;1883619;28;7097;-65
2021/11/27 06:16:12;;;;;;;;;;;;;;;;;;1883904;28;7317;-65
2021/11/27 06:17:10;;;;;;;;;;;;;;;;;;1883698;28;7608;-65
2021/11/27 06:18:07;;;;;;;;;;;;;;;;;;1883776;28;7104;-65
2021/11/27 06:19:04;;;;;;;;;;;;;;;;;;1883420;28;7042;-65
2021/11/27 06:20:02;;;;;;;;;;;;;;;;;;1883491;28;7006;-65
2021/11/27 06:21:01;;;;;;;;;;;;;;;;;;1883873;28;7289;-65
2021/11/27 06:22:00;;;;;;;;;;;;;;;;;;1883940;28;7009;-65
2021/11/27 06:22:57;;;;;;;;;;;;;;;;;;1882522;28;7128;-65
2021/11/27 06:23:55;;;;;;;;;;;;;;;;;;1882694;28;7010;-63
2021/11/27 06:24:52;;;;;;;;;;;;;;;;;;1883050;28;7092;-64
2021/11/27 06:25:50;;;;;;;;;;;;;;;;;;1883538;28;7093;-65
2021/11/27 06:26:48;;;;;;;;;;;;;;;;;;1882265;28;7009;-65
2021/11/27 06:27:45;;;;;;;;;;;;;;;;;;1883393;28;8052;-65
2021/11/27 06:28:43;;;;;;;;;;;;;;;;;;1883528;28;7006;-65
2021/11/27 06:29:40;;;;;;;;;;;;;;;;;;1883882;28;8044;-65
2021/11/27 06:30:41;;;;;;;;;;;;;;;;;;1883918;28;7010;-64
2021/11/27 06:31:38;;;;;;;;;;;;;;;;;;1884419;28;7114;-65
2021/11/27 06:32:37;;;;;;;;;;;;;;;;;;1883040;28;7305;-65
2021/11/27 06:33:34;;;;;;;;;;;;;;;;;;1881924;28;7022;-65
2021/11/27 06:34:32;;;;;;;;;;;;;;;;;;1878739;28;8062;-64
2021/11/27 06:35:29;;;;;;;;;;;;;;;;;;1883312;28;7014;-64
2021/11/27 06:36:26;;;;;;;;;;;;;;;;;;1884108;28;7117;-65
2021/11/27 06:37:25;;;;;;;;;;;;;;;;;;1883844;28;7010;-65
2021/11/27 06:38:37;;;;;;;;;;;;;;;;;;1884151;28;8095;-65
2021/11/27 06:39:37;;;;;;;;;;;;;;;;;;1883545;28;7101;-65
2021/11/27 06:40:35;;;;;;;;;;;;;;;;;;1882978;28;7105;-65
2021/11/27 06:41:32;;;;;;;;;;;;;;;;;;1883458;28;7092;-65
2021/11/27 06:42:30;;;;;;;;;;;;;;;;;;1883940;28;7105;-65
2021/11/27 06:43:27;;;;;;;;;;;;;;;;;;1883745;28;7096;-64
2021/11/27 06:44:25;;;;;;;;;;;;;;;;;;1883628;28;7088;-65
2021/11/27 06:45:23;;;;;;;;;;;;;;;;;;1883998;28;7038;-64